Time;durP1;ratioP1;P1;durP2;ratioP2;P2;SDS_P1;SDS_P2;PMS_P1;PMS_P2;Temp;Humidity;BMP_temperature;BMP_pressure;BME280_temperature;BME280_humidity;BME280_pressure;Samples;Min_cycle;Max_cycle;Signal;HPM_P1;HPM_P2
2022/12/09 00:00:29;;;;;;;25.13;16.00;;;;;;;1.68;100.00;100586.47;1039532;28;20302;-80
2022/12/09 00:01:06;;;;;;;22.63;16.45;;;;;;;1.66;100.00;100588.44;1035205;28;20328;-80
2022/12/09 00:01:38;;;;;;;21.33;15.73;;;;;;;1.57;100.00;100584.97;1031835;28;20340;-81
2022/12/09 00:02:09;;;;;;;25.13;16.85;;;;;;;1.71;100.00;100588.75;1035816;28;20594;-80
2022/12/09 00:02:41;;;;;;;25.70;16.77;;;;;;;1.80;100.00;100585.94;1033425;28;20306;-80
2022/12/09 00:03:13;;;;;;;24.40;15.80;;;;;;;1.86;100.00;100582.66;1027582;28;20808;-80
2022/12/09 00:03:50;;;;;;;20.90;15.55;;;;;;;1.90;100.00;100580.50;1032419;28;20305;-80
2022/12/09 00:04:22;;;;;;;23.42;16.27;;;;;;;1.88;100.00;100582.50;1034977;28;20801;-80
2022/12/09 00:04:54;;;;;;;24.35;15.52;;;;;;;1.93;100.00;100590.72;1039104;28;20327;-80
2022/12/09 00:05:26;;;;;;;25.10;15.75;;;;;;;2.01;100.00;100582.00;1043247;28;20318;-80
2022/12/09 00:05:57;;;;;;;23.67;15.90;;;;;;;2.02;100.00;100588.88;1039339;28;20458;-80
2022/12/09 00:06:29;;;;;;;26.25;17.20;;;;;;;2.07;100.00;100589.19;1040065;28;20375;-80
2022/12/09 00:07:01;;;;;;;23.10;16.17;;;;;;;2.09;100.00;100590.66;1035024;28;20306;-80
2022/12/09 00:07:36;;;;;;;25.85;15.77;;;;;;;2.15;100.00;100579.47;1035712;28;20358;-80
2022/12/09 00:08:07;;;;;;;22.90;15.55;;;;;;;2.17;100.00;100579.31;1035709;28;20836;-80
2022/12/09 00:08:39;;;;;;;25.15;17.10;;;;;;;2.19;100.00;100579.97;1040639;28;20386;-80
2022/12/09 00:09:14;;;;;;;21.20;15.90;;;;;;;2.16;100.00;100575.88;1039216;28;20689;-80
2022/12/09 00:09:45;;;;;;;27.95;17.27;;;;;;;2.18;100.00;100578.31;1039144;28;20732;-80
2022/12/09 00:10:17;;;;;;;22.80;16.77;;;;;;;2.18;100.00;100579.16;1035461;28;20296;-80
2022/12/09 00:10:49;;;;;;;24.67;15.68;;;;;;;2.19;100.00;100582.59;1031943;28;20309;-80
2022/12/09 00:11:21;;;;;;;23.85;16.48;;;;;;;2.21;100.00;100582.47;1035786;28;20737;-80
2022/12/09 00:11:53;;;;;;;23.10;15.02;;;;;;;2.17;100.00;100581.94;1031751;28;20301;-80
2022/12/09 00:12:24;;;;;;;23.58;15.93;;;;;;;2.06;100.00;100580.50;1031105;28;20301;-80
2022/12/09 00:12:56;;;;;;;20.95;14.27;;;;;;;2.08;100.00;100583.78;1027201;28;20392;-80
2022/12/09 00:13:28;;;;;;;26.10;16.70;;;;;;;2.09;100.00;100574.09;1027902;28;20384;-80
2022/12/09 00:14:00;;;;;;;23.13;16.30;;;;;;;2.11;100.00;100578.19;1031713;28;20317;-80
2022/12/09 00:14:31;;;;;;;21.52;15.20;;;;;;;2.03;100.00;100574.75;1031806;28;20301;-80
2022/12/09 00:15:03;;;;;;;22.75;15.77;;;;;;;2.08;100.00;100573.28;1031046;28;20699;-80
2022/12/09 00:15:40;;;;;;;27.05;17.88;;;;;;;2.09;100.00;100572.28;1031397;28;20329;-80
2022/12/09 00:16:13;;;;;;;22.77;15.82;;;;;;;2.10;100.00;100576.53;1029469;28;20298;-80
2022/12/09 00:16:45;;;;;;;24.67;16.23;;;;;;;2.13;100.00;100578.84;1032614;28;20305;-80
2022/12/09 00:17:17;;;;;;;21.65;15.10;;;;;;;2.02;100.00;100581.00;1035303;28;20304;-79
2022/12/09 00:17:48;;;;;;;26.10;17.77;;;;;;;2.05;100.00;100578.88;1035430;28;20324;-79
2022/12/09 00:18:20;;;;;;;23.48;16.05;;;;;;;1.94;100.00;100576.59;1039781;28;20329;-79
2022/12/09 00:18:51;;;;;;;25.60;17.85;;;;;;;1.97;100.00;100575.44;1039335;28;20704;-79
2022/12/09 00:19:23;;;;;;;24.10;16.58;;;;;;;1.98;100.00;100580.53;1035080;28;20736;-80
2022/12/09 00:19:55;;;;;;;24.35;18.35;;;;;;;2.00;100.00;100575.09;1035057;28;20384;-79
2022/12/09 00:20:26;;;;;;;21.55;15.50;;;;;;;1.96;100.00;100569.38;1035466;28;22287;-80
2022/12/09 00:20:58;;;;;;;20.77;16.02;;;;;;;2.00;100.00;100577.72;1039543;28;20288;-80
2022/12/09 00:21:31;;;;;;;24.35;16.08;;;;;;;1.83;100.00;100567.22;1039407;28;20386;-79
2022/12/09 00:22:02;;;;;;;21.33;15.55;;;;;;;1.78;100.00;100571.34;1042242;28;20305;-79
2022/12/09 00:22:34;;;;;;;23.38;16.73;;;;;;;1.69;100.00;100567.09;1039366;28;20311;-80
2022/12/09 00:23:05;;;;;;;25.17;16.55;;;;;;;1.73;100.00;100568.41;1034909;28;20726;-79
2022/12/09 00:23:37;;;;;;;22.63;16.08;;;;;;;1.77;100.00;100567.09;1031639;28;20364;-80
2022/12/09 00:24:10;;;;;;;27.83;18.10;;;;;;;1.62;100.00;100573.97;1035270;28;20304;-79
2022/12/09 00:24:42;;;;;;;28.00;16.27;;;;;;;1.53;100.00;100566.09;1035657;28;20854;-79
2022/12/09 00:25:14;;;;;;;27.98;16.63;;;;;;;1.56;100.00;100572.84;1035372;28;20308;-80
2022/12/09 00:25:46;;;;;;;22.70;15.15;;;;;;;1.56;100.00;100572.84;1031182;28;20312;-80
2022/12/09 00:26:18;;;;;;;24.48;17.45;;;;;;;1.62;100.00;100572.16;1027980;28;20396;-80
2022/12/09 00:26:50;;;;;;;23.25;16.58;;;;;;;1.60;100.00;100562.81;1027500;28;20329;-80
2022/12/09 00:27:22;;;;;;;20.58;14.77;;;;;;;1.56;100.00;100567.59;1026965;28;20796;-80
2022/12/09 00:27:53;;;;;;;22.15;15.43;;;;;;;1.70;100.00;100568.75;1019836;29;20351;-80
2022/12/09 00:28:25;;;;;;;26.58;16.05;;;;;;;1.76;100.00;100568.06;1023868;28;20818;-79
2022/12/09 00:28:57;;;;;;;22.95;16.02;;;;;;;1.74;100.00;100564.78;1030323;28;20306;-79
2022/12/09 00:29:28;;;;;;;24.40;18.38;;;;;;;1.69;100.00;100573.16;1028254;28;20302;-79
2022/12/09 00:30:00;;;;;;;22.33;16.45;;;;;;;1.67;100.00;100569.91;1030770;28;20301;-79
2022/12/09 00:30:32;;;;;;;22.20;14.88;;;;;;;1.66;100.00;100577.94;1025522;28;20305;-80
2022/12/09 00:31:04;;;;;;;23.58;16.55;;;;;;;1.68;100.00;100570.72;1025610;28;20346;-79
2022/12/09 00:31:36;;;;;;;22.30;15.98;;;;;;;1.70;100.00;100574.81;1031390;28;20806;-80
2022/12/09 00:32:08;;;;;;;25.73;16.83;;;;;;;1.66;100.00;100576.13;1030428;28;20312;-80
2022/12/09 00:32:41;;;;;;;24.48;15.90;;;;;;;1.68;100.00;100578.59;1028930;28;20310;-80
2022/12/09 00:33:12;;;;;;;22.67;15.07;;;;;;;1.66;100.00;100573.50;1032478;28;20803;-80
2022/12/09 00:33:44;;;;;;;24.05;15.40;;;;;;;1.67;100.00;100569.06;1033231;28;20319;-79
2022/12/09 00:34:16;;;;;;;24.90;16.63;;;;;;;1.64;100.00;100569.38;1035172;28;20297;-80
2022/12/09 00:34:48;;;;;;;23.80;15.82;;;;;;;1.61;100.00;100567.91;1030958;28;20403;-79
2022/12/09 00:35:19;;;;;;;28.80;17.65;;;;;;;1.67;100.00;100572.53;1026664;28;20326;-80
2022/12/09 00:35:51;;;;;;;23.23;16.13;;;;;;;1.63;100.00;100570.38;1027911;28;20780;-80
2022/12/09 00:36:23;;;;;;;23.63;16.30;;;;;;;1.67;100.00;100569.91;1027237;28;20337;-80
2022/12/09 00:36:55;;;;;;;24.55;15.63;;;;;;;1.75;100.00;100571.69;1026843;28;20308;-79
2022/12/09 00:37:26;;;;;;;21.65;16.20;;;;;;;1.68;100.00;100568.91;1025969;28;20459;-80
2022/12/09 00:37:58;;;;;;;25.90;15.93;;;;;;;1.68;100.00;100570.72;1030973;28;20340;-80
2022/12/09 00:38:29;;;;;;;23.13;16.25;;;;;;;1.63;100.00;100568.56;1032904;28;20396;-80
2022/12/09 00:39:01;;;;;;;21.77;16.35;;;;;;;1.57;100.00;100563.16;1039533;28;20351;-80
2022/12/09 00:39:33;;;;;;;21.27;15.80;;;;;;;1.61;100.00;100570.53;1039305;28;20300;-80
2022/12/09 00:40:05;;;;;;;23.25;15.70;;;;;;;1.69;100.00;100567.09;1039429;28;20506;-79
2022/12/09 00:40:38;;;;;;;24.55;17.65;;;;;;;1.74;100.00;100570.03;1039070;28;20300;-79
2022/12/09 00:41:10;;;;;;;21.67;14.98;;;;;;;1.65;100.00;100560.53;1039383;28;20300;-79
2022/12/09 00:41:42;;;;;;;20.20;15.40;;;;;;;1.70;100.00;100564.31;1035140;28;20332;-79
2022/12/09 00:42:14;;;;;;;22.27;15.57;;;;;;;1.63;100.00;100565.13;1035024;28;20643;-80
2022/12/09 00:42:45;;;;;;;22.65;14.68;;;;;;;1.60;100.00;100565.44;1032861;28;20440;-80
2022/12/09 00:43:17;;;;;;;21.55;15.50;;;;;;;1.58;100.00;100565.59;1031025;28;20301;-80
2022/12/09 00:43:49;;;;;;;22.83;15.82;;;;;;;1.50;100.00;100569.06;1027130;28;20309;-79
2022/12/09 00:44:20;;;;;;;19.70;14.38;;;;;;;1.57;100.00;100565.78;1022474;28;20403;-80
2022/12/09 00:44:52;;;;;;;21.15;15.05;;;;;;;1.64;100.00;100572.00;1034110;28;20839;-80
2022/12/09 00:45:24;;;;;;;20.45;13.98;;;;;;;1.64;100.00;100574.63;1035180;28;20391;-80
2022/12/09 00:45:56;;;;;;;23.30;15.43;;;;;;;1.64;100.00;100572.81;1034877;28;20323;-80
2022/12/09 00:46:27;;;;;;;19.67;15.57;;;;;;;1.69;100.00;100569.72;1035705;28;20359;-79
2022/12/09 00:46:59;;;;;;;19.67;14.13;;;;;;;1.75;100.00;100576.94;1033721;28;20297;-80
2022/12/09 00:47:31;;;;;;;20.75;15.00;;;;;;;1.72;100.00;100572.03;1031292;28;20301;-80
2022/12/09 00:48:02;;;;;;;20.63;14.43;;;;;;;1.80;100.00;100564.13;1034951;28;20300;-79
2022/12/09 00:48:36;;;;;;;20.55;14.60;;;;;;;1.79;100.00;100563.31;1034160;28;20363;-79
2022/12/09 00:49:09;;;;;;;22.23;16.52;;;;;;;1.80;100.00;100572.00;1039799;28;20308;-79
2022/12/09 00:49:40;;;;;;;21.10;15.15;;;;;;;1.85;100.00;100572.31;1032896;28;20379;-80
2022/12/09 00:50:12;;;;;;;20.73;15.98;;;;;;;1.80;100.00;100567.56;1027645;28;20306;-79
2022/12/09 00:50:45;;;;;;;20.45;15.48;;;;;;;1.67;100.00;100569.06;1023177;28;20303;-80
2022/12/09 00:51:19;;;;;;;21.40;14.80;;;;;;;1.60;100.00;100568.06;1020828;28;20379;-80
2022/12/09 00:51:52;;;;;;;23.20;16.05;;;;;;;1.48;100.00;100571.03;1027916;28;20380;-80
2022/12/09 00:52:25;;;;;;;20.92;14.63;;;;;;;1.46;100.00;100573.00;1031046;28;20297;-79
2022/12/09 00:52:57;;;;;;;20.95;15.52;;;;;;;1.41;100.00;100566.63;1032185;28;20718;-80
2022/12/09 00:53:28;;;;;;;23.85;16.00;;;;;;;1.39;100.00;100566.78;1028239;28;20294;-80
2022/12/09 00:54:01;;;;;;;22.63;13.80;;;;;;;1.39;100.00;100572.03;1027485;28;20302;-79
2022/12/09 00:54:33;;;;;;;19.83;14.27;;;;;;;1.37;100.00;100574.00;1033911;28;20297;-80
2022/12/09 00:55:05;;;;;;;18.83;14.15;;;;;;;1.38;100.00;100580.88;1035915;28;20359;-79
2022/12/09 00:55:37;;;;;;;23.77;16.08;;;;;;;1.38;100.00;100570.38;1035699;28;20300;-79
2022/12/09 00:56:09;;;;;;;20.20;13.93;;;;;;;1.39;100.00;100572.03;1034993;28;20638;-80
2022/12/09 00:56:41;;;;;;;22.65;14.80;;;;;;;1.39;100.00;100577.28;1029907;28;20798;-79
2022/12/09 00:57:13;;;;;;;22.05;15.20;;;;;;;1.40;100.00;100568.41;1027025;28;20306;-80
2022/12/09 00:57:44;;;;;;;19.45;14.27;;;;;;;1.33;100.00;100577.06;1031498;28;20293;-80
2022/12/09 00:58:16;;;;;;;20.60;14.55;;;;;;;1.47;100.00;100571.19;1027126;28;20337;-79
2022/12/09 00:58:48;;;;;;;22.05;14.77;;;;;;;1.49;100.00;100567.44;1027222;28;20301;-80
2022/12/09 00:59:20;;;;;;;19.75;14.77;;;;;;;1.59;100.00;100571.69;1027116;28;20381;-80
2022/12/09 00:59:51;;;;;;;21.55;15.80;;;;;;;1.49;100.00;100577.91;1028452;28;20297;-79
2022/12/09 01:00:23;;;;;;;24.10;16.65;;;;;;;1.55;100.00;100574.63;1036769;28;20289;-80
2022/12/09 01:00:54;;;;;;;23.65;15.75;;;;;;;1.43;100.00;100573.34;1038488;28;20339;-79
2022/12/09 01:01:27;;;;;;;20.98;14.93;;;;;;;1.30;100.00;100572.97;1039380;28;20331;-80
2022/12/09 01:01:59;;;;;;;20.48;14.18;;;;;;;1.19;100.00;100566.25;1035116;28;20809;-80
2022/12/09 01:02:31;;;;;;;21.85;15.88;;;;;;;1.31;100.00;100576.44;1035382;28;20443;-79
2022/12/09 01:03:03;;;;;;;19.42;13.70;;;;;;;1.20;100.00;100569.69;1038943;28;20304;-80
2022/12/09 01:03:35;;;;;;;21.55;15.68;;;;;;;1.21;100.00;100573.97;1031668;28;20304;-79
2022/12/09 01:04:07;;;;;;;23.80;17.13;;;;;;;1.17;100.00;100572.66;1031317;28;20758;-80
2022/12/09 01:04:39;;;;;;;21.42;15.98;;;;;;;1.14;100.00;100579.03;1034937;28;20319;-79
2022/12/09 01:05:11;;;;;;;19.60;14.35;;;;;;;1.14;100.00;100572.97;1027993;28;20305;-79
2022/12/09 01:05:43;;;;;;;21.38;16.00;;;;;;;1.13;100.00;100571.34;1030815;28;20679;-80
2022/12/09 01:06:20;;;;;;;21.58;14.95;;;;;;;1.13;100.00;100581.81;1031038;28;20301;-80
2022/12/09 01:06:52;;;;;;;21.98;14.80;;;;;;;1.13;100.00;100571.34;1032157;28;20617;-79
2022/12/09 01:07:24;;;;;;;33.35;16.40;;;;;;;1.11;100.00;100575.94;1033099;28;20308;-79
2022/12/09 01:07:55;;;;;;;21.65;15.20;;;;;;;1.03;100.00;100573.25;1030784;28;20309;-80
2022/12/09 01:08:27;;;;;;;20.27;15.20;;;;;;;1.03;100.00;100578.50;1023223;28;20385;-80
2022/12/09 01:08:58;;;;;;;20.13;14.50;;;;;;;1.03;100.00;100575.88;1027555;28;20310;-79
2022/12/09 01:09:33;;;;;;;20.02;14.50;;;;;;;1.08;100.00;100581.47;1027341;28;20680;-80
2022/12/09 01:10:06;;;;;;;21.08;15.25;;;;;;;0.89;100.00;100575.53;1032994;28;20356;-80
2022/12/09 01:10:40;;;;;;;22.75;15.52;;;;;;;0.87;100.00;100577.50;1032112;28;20392;-80
2022/12/09 01:11:18;;;;;;;18.45;13.75;;;;;;;0.90;100.00;100577.19;1032472;28;20715;-80
2022/12/09 01:11:51;;;;;;;22.45;15.40;;;;;;;0.86;100.00;100585.53;1033305;28;20736;-79
2022/12/09 01:12:23;;;;;;;20.83;15.10;;;;;;;0.87;100.00;100572.25;1036817;28;20370;-80
2022/12/09 01:12:55;;;;;;;20.10;14.32;;;;;;;0.88;100.00;100578.31;1034363;28;20362;-79
2022/12/09 01:13:26;;;;;;;23.75;15.77;;;;;;;0.89;100.00;100580.78;1027905;28;20293;-80
2022/12/09 01:14:00;;;;;;;22.08;15.18;;;;;;;0.88;100.00;100573.91;1034202;28;20403;-79
2022/12/09 01:14:31;;;;;;;21.95;15.13;;;;;;;0.92;100.00;100574.41;1036249;28;20296;-79
2022/12/09 01:15:05;;;;;;;23.27;15.30;;;;;;;0.84;100.00;100572.59;1034507;28;20304;-80
2022/12/09 01:15:37;;;;;;;22.45;14.65;;;;;;;0.69;100.00;100575.97;1031131;28;20305;-79
2022/12/09 01:16:13;;;;;;;19.88;14.75;;;;;;;0.71;100.00;100574.81;1032632;28;20916;-80
2022/12/09 01:16:45;;;;;;;20.92;14.85;;;;;;;0.79;100.00;100572.22;1034859;28;20359;-79
2022/12/09 01:17:17;;;;;;;19.50;13.80;;;;;;;1.00;100.00;100576.22;1035912;28;20379;-79
2022/12/09 01:17:49;;;;;;;19.45;14.57;;;;;;;0.96;100.00;100574.91;1031101;28;20811;-79
2022/12/09 01:18:20;;;;;;;23.70;15.80;;;;;;;0.91;100.00;100573.56;1026030;28;20334;-80
2022/12/09 01:18:54;;;;;;;18.42;13.52;;;;;;;0.90;100.00;100571.13;1027380;28;20312;-79
2022/12/09 01:19:26;;;;;;;23.10;14.63;;;;;;;0.86;100.00;100569.81;1033538;28;20312;-79
2022/12/09 01:19:57;;;;;;;19.20;13.88;;;;;;;0.87;100.00;100574.88;1038957;28;20306;-80
2022/12/09 01:20:30;;;;;;;21.73;14.73;;;;;;;0.85;100.00;100574.22;1034952;28;20304;-79
2022/12/09 01:21:02;;;;;;;18.55;12.45;;;;;;;0.88;100.00;100573.09;1031077;28;20317;-80
2022/12/09 01:21:34;;;;;;;19.05;12.85;;;;;;;0.83;100.00;100578.81;1035946;28;20300;-80
2022/12/09 01:22:08;;;;;;;20.65;14.15;;;;;;;0.85;100.00;100573.41;1034753;28;20662;-80
2022/12/09 01:22:40;;;;;;;17.48;11.90;;;;;;;0.83;100.00;100584.06;1034565;28;20829;-79
2022/12/09 01:23:12;;;;;;;19.45;13.82;;;;;;;0.76;100.00;100588.25;1038881;28;20394;-79
2022/12/09 01:23:43;;;;;;;17.77;13.80;;;;;;;0.79;100.00;100579.25;1034836;28;20308;-79
2022/12/09 01:24:15;;;;;;;20.15;14.57;;;;;;;0.87;100.00;100585.38;1032468;28;20337;-80
2022/12/09 01:24:46;;;;;;;18.83;13.25;;;;;;;0.88;100.00;100583.56;1029224;28;20317;-80
2022/12/09 01:25:18;;;;;;;20.70;14.45;;;;;;;0.89;100.00;100583.41;1029695;28;20305;-80
2022/12/09 01:25:50;;;;;;;17.92;13.68;;;;;;;1.11;100.00;100583.78;1029847;28;20316;-80
2022/12/09 01:26:21;;;;;;;18.15;14.30;;;;;;;1.24;100.00;100582.31;1030207;28;20312;-79
2022/12/09 01:26:53;;;;;;;20.33;15.13;;;;;;;1.24;100.00;100589.38;1031301;28;20705;-79
2022/12/09 01:27:25;;;;;;;19.17;13.35;;;;;;;1.27;100.00;100588.22;1030548;28;20392;-79
2022/12/09 01:27:57;;;;;;;19.95;13.98;;;;;;;1.34;100.00;100587.41;1031161;28;20309;-79
2022/12/09 01:28:28;;;;;;;17.70;13.35;;;;;;;1.33;100.00;100588.41;1031442;28;20818;-79
2022/12/09 01:29:00;;;;;;;23.27;14.45;;;;;;;1.36;100.00;100588.06;1030950;28;20888;-79
2022/12/09 01:29:32;;;;;;;22.25;15.43;;;;;;;1.30;100.00;100586.09;1035721;28;20301;-79
2022/12/09 01:30:05;;;;;;;20.05;15.13;;;;;;;1.20;100.00;100588.88;1030178;28;20376;-79
2022/12/09 01:30:37;;;;;;;19.92;13.88;;;;;;;1.15;100.00;100585.09;1030756;28;20305;-79
2022/12/09 01:31:16;;;;;;;20.65;13.90;;;;;;;1.24;100.00;100589.38;1033350;28;20304;-79
2022/12/09 01:31:48;;;;;;;23.00;15.65;;;;;;;1.10;100.00;100587.41;1030698;28;20293;-79
2022/12/09 01:32:20;;;;;;;21.40;14.10;;;;;;;1.10;100.00;100587.41;1032421;28;20333;-79
2022/12/09 01:32:52;;;;;;;23.70;15.63;;;;;;;1.09;100.00;100591.78;1034997;28;20667;-79
2022/12/09 01:33:24;;;;;;;24.10;15.98;;;;;;;1.19;100.00;100591.66;1032079;28;20315;-79
2022/12/09 01:33:56;;;;;;;22.17;15.20;;;;;;;1.19;100.00;100592.50;1035181;28;20292;-79
2022/12/09 01:34:29;;;;;;;23.10;15.30;;;;;;;1.13;100.00;100592.31;1034578;28;20309;-79
2022/12/09 01:35:01;;;;;;;22.48;15.63;;;;;;;1.16;100.00;100586.75;1031444;28;20316;-79
2022/12/09 01:35:33;;;;;;;24.05;14.93;;;;;;;1.16;100.00;100587.56;1034931;28;20324;-79
2022/12/09 01:36:06;;;;;;;22.98;14.98;;;;;;;1.30;100.00;100593.97;1026221;28;21742;-79
2022/12/09 01:36:39;;;;;;;24.50;14.90;;;;;;;1.38;100.00;100590.56;1023697;28;20359;-79
2022/12/09 01:37:10;;;;;;;22.55;16.10;;;;;;;1.28;100.00;100588.06;1026674;28;20298;-79
2022/12/09 01:37:42;;;;;;;20.83;14.85;;;;;;;1.20;100.00;100593.31;1028677;28;20354;-79
2022/12/09 01:38:13;;;;;;;23.20;16.17;;;;;;;1.20;100.00;100593.31;1031904;28;20305;-79
2022/12/09 01:38:46;;;;;;;19.25;15.32;;;;;;;1.26;100.00;100592.66;1034779;28;20439;-79
2022/12/09 01:39:17;;;;;;;20.20;14.38;;;;;;;1.29;100.00;100591.50;1033083;28;20727;-79
2022/12/09 01:39:49;;;;;;;21.30;14.73;;;;;;;1.40;100.00;100593.84;1034536;28;20312;-79
2022/12/09 01:40:21;;;;;;;24.00;16.45;;;;;;;1.51;100.00;100590.88;1030667;28;20313;-79
2022/12/09 01:40:52;;;;;;;21.88;15.50;;;;;;;1.49;100.00;100593.66;1035245;28;20845;-79
2022/12/09 01:41:24;;;;;;;23.38;16.20;;;;;;;1.39;100.00;100587.78;1034933;28;20388;-79
2022/12/09 01:41:56;;;;;;;23.05;15.90;;;;;;;1.33;100.00;100598.88;1034773;28;20312;-79
2022/12/09 01:42:28;;;;;;;24.17;16.23;;;;;;;1.28;100.00;100593.31;1035013;28;20297;-79
2022/12/09 01:43:00;;;;;;;22.15;15.23;;;;;;;1.24;100.00;100595.44;1032190;28;20990;-79
2022/12/09 01:43:31;;;;;;;23.92;15.35;;;;;;;1.17;100.00;100591.84;1035099;28;20322;-79
2022/12/09 01:44:19;;;;;;;21.85;15.80;;;;;;;1.24;100.00;100594.63;1035478;28;20806;-79
2022/12/09 01:45:31;;;;;;;22.27;16.75;;;;;;;1.22;100.00;100592.16;1033842;28;20304;-79
2022/12/09 01:46:02;;;;;;;22.63;15.60;;;;;;;1.22;100.00;100597.41;1034642;28;20356;-79
2022/12/09 01:46:34;;;;;;;25.15;15.57;;;;;;;1.21;100.00;100594.94;1036754;28;20041;-79
2022/12/09 01:47:20;;;;;;;19.85;14.68;;;;;;;1.16;100.00;100592.00;1038826;28;20314;-79
2022/12/09 01:48:05;;;;;;;21.40;14.05;;;;;;;1.15;100.00;100585.09;1041480;28;20369;-79
2022/12/09 01:48:40;;;;;;;21.55;14.80;;;;;;;1.12;100.00;100586.25;1039034;28;20381;-79
2022/12/09 01:49:16;;;;;;;24.10;16.10;;;;;;;1.15;100.00;100595.59;1039056;28;20378;-79
2022/12/09 01:49:47;;;;;;;21.70;15.63;;;;;;;1.29;100.00;100597.56;1039181;28;20299;-79
2022/12/09 01:50:19;;;;;;;24.35;16.20;;;;;;;1.39;100.00;100592.19;1032539;28;20301;-79
2022/12/09 01:50:54;;;;;;;29.08;17.08;;;;;;;1.45;100.00;100592.34;1034068;28;20308;-79
2022/12/09 01:51:25;;;;;;;23.08;16.75;;;;;;;1.41;100.00;100590.22;1030309;28;20336;-79
2022/12/09 01:52:12;;;;;;;20.90;14.70;;;;;;;1.41;100.00;100596.28;1024604;28;20334;-79
2022/12/09 01:52:45;;;;;;;24.33;15.93;;;;;;;1.46;100.00;100599.25;1028807;28;20384;-79
2022/12/09 01:53:17;;;;;;;21.35;15.88;;;;;;;1.47;100.00;100595.63;1030725;28;20296;-78
2022/12/09 01:53:49;;;;;;;24.95;17.48;;;;;;;1.50;100.00;100595.31;1030857;28;20791;-79
2022/12/09 01:54:22;;;;;;;25.85;17.48;;;;;;;1.57;100.00;100589.41;1032332;28;20309;-79
2022/12/09 01:54:54;;;;;;;24.02;17.38;;;;;;;1.56;100.00;100593.81;1034513;28;20308;-79
2022/12/09 01:55:26;;;;;;;26.13;17.35;;;;;;;1.53;100.00;100589.72;1031255;28;20304;-79
2022/12/09 01:56:00;;;;;;;22.95;15.77;;;;;;;1.54;100.00;100590.56;1026352;28;20347;-79
2022/12/09 01:56:34;;;;;;;25.85;15.77;;;;;;;1.51;100.00;100596.13;1024453;28;20314;-79
2022/12/09 01:57:06;;;;;;;24.10;15.45;;;;;;;1.48;100.00;100597.28;1022796;28;20542;-79
2022/12/09 01:57:38;;;;;;;23.15;16.17;;;;;;;1.45;100.00;100591.53;1024033;28;20299;-79
2022/12/09 01:58:10;;;;;;;23.38;17.70;;;;;;;1.43;100.00;100588.25;1019851;29;20303;-79
2022/12/09 01:58:43;;;;;;;23.92;16.75;;;;;;;1.42;100.00;100587.44;1019867;28;20830;-78
2022/12/09 01:59:15;;;;;;;23.92;15.82;;;;;;;1.31;100.00;100589.53;1023514;28;20389;-78
2022/12/09 01:59:47;;;;;;;21.95;15.57;;;;;;;1.24;100.00;100586.75;1027727;28;20298;-78
2022/12/09 02:00:20;;;;;;;20.48;15.32;;;;;;;1.17;100.00;100588.38;1027389;28;20397;-78
2022/12/09 02:00:53;;;;;;;21.23;15.98;;;;;;;1.17;100.00;100589.22;1027687;28;20392;-78
2022/12/09 02:01:25;;;;;;;19.48;14.57;;;;;;;1.11;100.00;100594.28;1031800;28;20375;-79
2022/12/09 02:01:59;;;;;;;21.42;15.32;;;;;;;1.13;100.00;100590.53;1031691;28;20301;-79
2022/12/09 02:02:31;;;;;;;20.40;15.57;;;;;;;1.17;100.00;100588.38;1034747;28;20296;-79
2022/12/09 02:03:04;;;;;;;20.05;15.15;;;;;;;1.15;100.00;100592.97;1031016;28;20795;-78
2022/12/09 02:03:37;;;;;;;18.80;14.55;;;;;;;1.14;100.00;100588.72;1026998;28;20855;-79
2022/12/09 02:04:09;;;;;;;23.92;16.08;;;;;;;1.15;100.00;100592.97;1023600;28;20797;-78
2022/12/09 02:04:44;;;;;;;21.33;14.20;;;;;;;1.10;100.00;100587.41;1026901;28;20578;-79
2022/12/09 02:05:17;;;;;;;21.42;15.35;;;;;;;1.09;100.00;100591.78;1030655;28;20844;-79
2022/12/09 02:05:53;;;;;;;26.40;16.95;;;;;;;1.07;100.00;100587.69;1031076;28;20301;-79
2022/12/09 02:06:25;;;;;;;21.10;15.02;;;;;;;1.08;100.00;100584.09;1030840;28;20835;-78
2022/12/09 02:06:59;;;;;;;20.13;14.50;;;;;;;1.10;100.00;100587.41;1029665;28;20356;-79
2022/12/09 02:07:31;;;;;;;19.02;13.68;;;;;;;1.16;100.00;100594.63;1026649;28;20373;-79
2022/12/09 02:08:08;;;;;;;20.15;14.38;;;;;;;1.12;100.00;100591.50;1022761;28;20446;-78
2022/12/09 02:08:40;;;;;;;20.17;13.95;;;;;;;1.12;100.00;100590.69;1024173;28;20713;-79
2022/12/09 02:09:12;;;;;;;22.15;14.95;;;;;;;1.14;100.00;100588.72;1030370;28;20297;-79
2022/12/09 02:09:51;;;;;;;25.13;16.98;;;;;;;1.10;100.00;100584.78;1026113;28;20302;-78
2022/12/09 02:10:32;;;;;;;19.80;14.00;;;;;;;1.10;100.00;100590.03;1031735;28;20304;-79
2022/12/09 02:11:24;;;;;;;21.15;15.38;;;;;;;1.11;100.00;100586.41;1024855;28;20330;-79
2022/12/09 02:12:11;;;;;;;22.20;13.68;;;;;;;1.12;100.00;100578.38;1025251;28;20734;-79
2022/12/09 02:12:57;;;;;;;19.88;14.48;;;;;;;1.12;100.00;100586.25;1030758;28;20305;-79
2022/12/09 02:13:50;;;;;;;26.92;14.35;;;;;;;1.09;100.00;100580.47;1035064;28;20324;-79
2022/12/09 02:14:23;;;;;;;18.83;14.02;;;;;;;1.12;100.00;100581.00;1042981;28;20299;-79
2022/12/09 02:15:03;;;;;;;19.83;13.60;;;;;;;1.11;100.00;100578.56;1034452;28;20781;-78
2022/12/09 02:15:46;;;;;;;20.48;14.90;;;;;;;1.11;100.00;100568.88;1030616;28;20672;-79
2022/12/09 02:16:22;;;;;;;23.33;15.52;;;;;;;1.13;100.00;100582.66;1022780;28;20587;-78
2022/12/09 02:17:30;;;;;;;26.95;16.70;;;;;;;1.14;100.00;100580.84;1026877;28;20360;-79
2022/12/09 02:18:15;;;;;;;22.02;14.57;;;;;;;0.96;100.00;100574.91;1030115;28;20445;-78
2022/12/09 02:18:51;;;;;;;17.73;13.48;;;;;;;0.87;100.00;100588.00;1030328;28;20305;-78
2022/12/09 02:19:43;;;;;;;22.88;15.25;;;;;;;0.88;100.00;100587.00;1033692;28;20359;-78
2022/12/09 02:20:25;;;;;;;19.98;12.80;;;;;;;1.09;100.00;100580.47;1029292;28;20309;-79
2022/12/09 02:21:03;;;;;;;22.35;13.18;;;;;;;1.14;100.00;100583.47;1030559;28;20365;-79
2022/12/09 02:21:44;;;;;;;21.23;14.23;;;;;;;1.07;100.00;100582.44;1030258;28;20304;-79
2022/12/09 02:22:22;;;;;;;24.02;15.10;;;;;;;1.03;100.00;100586.38;1022541;28;20321;-79
2022/12/09 02:23:18;;;;;;;19.42;14.18;;;;;;;1.04;100.00;100588.03;1029796;28;20914;-78
2022/12/09 02:23:57;;;;;;;16.55;12.63;;;;;;;0.89;100.00;100583.41;1030951;28;20645;-78
2022/12/09 02:24:54;;;;;;;19.83;13.52;;;;;;;0.89;100.00;100586.03;1031608;28;20333;-79
2022/12/09 02:25:39;;;;;;;19.65;13.02;;;;;;;0.85;100.00;100584.72;1030258;28;20301;-78
2022/12/09 02:26:37;;;;;;;19.00;13.55;;;;;;;0.89;100.00;100586.03;1028453;28;20485;-78
2022/12/09 02:27:12;;;;;;;22.60;14.30;;;;;;;0.95;100.00;100589.00;1033431;28;20313;-79
2022/12/09 02:27:58;;;;;;;23.65;15.48;;;;;;;0.92;100.00;100580.47;1034896;28;20323;-79
2022/12/09 02:28:36;;;;;;;20.50;14.05;;;;;;;0.98;100.00;100579.00;1034539;28;20308;-78
2022/12/09 02:29:14;;;;;;;23.00;14.98;;;;;;;1.00;100.00;100578.84;1033630;28;20482;-79
2022/12/09 02:29:49;;;;;;;21.55;14.43;;;;;;;0.99;100.00;100585.06;1034373;28;20300;-79
2022/12/09 02:30:32;;;;;;;25.35;16.15;;;;;;;1.01;100.00;100577.84;1034965;28;20301;-79
2022/12/09 02:31:21;;;;;;;20.25;13.63;;;;;;;1.02;100.00;100576.88;1034349;28;20324;-78
2022/12/09 02:32:02;;;;;;;15.85;11.13;;;;;;;1.05;100.00;100574.75;1035046;28;20661;-79
2022/12/09 02:32:48;;;;;;;18.90;12.85;;;;;;;1.10;100.00;100579.53;1033848;28;20399;-78
2022/12/09 02:33:54;;;;;;;22.02;14.00;;;;;;;1.06;100.00;100575.56;1034756;28;20131;-79
2022/12/09 02:34:27;;;;;;;17.27;12.20;;;;;;;1.08;100.00;100578.84;1033354;28;20355;-79
2022/12/09 02:35:13;;;;;;;19.85;13.88;;;;;;;1.09;100.00;100575.25;1030450;28;20294;-78
2022/12/09 02:35:55;;;;;;;15.88;11.93;;;;;;;1.06;100.00;100575.56;1030537;28;20842;-78